(°C)
21°
22°
23°
25°
27°
28°
29°
(°C)
20°
21°
22°
23°
25°
26°
27°
ВЮВ
ВЮВ
ВЮВ
ЮВ
ЮВ
ЮВ
ЮЮВ
(км/ч)
11-20
12-19
14-21
16-26
18-30
22-35
23-37
(мм)
0
0
0
0
0
0
0
(%)
0
1
0
0
0
0
0

Высота солнцестояния

/ 15.6°
sun-icon
UV 5
04:07
21:12
Прибывающая луна (70°)
09:53
00:44

METAR для 53.5°С 50.15°В (UWWW)

Время Условия Температура/
Точка росы
Ветер Видимость Погода Облачность Давление Изменить Необработанный
VFR 20°C / 13°C 90º 8kt >10km - Clouds and Visibility OK 1008 No Significant change UWWW 160200Z 09004MPS CAVOK 20/13 Q1008 R15/CLRD60 NOSIG RMK QFE745/0993
VFR 20°C / 13°C 80º 10kt >10km - Clouds and Visibility OK 1008 No Significant change UWWW 160130Z 08005MPS CAVOK 20/13 Q1008 R15/CLRD60 NOSIG RMK QFE745/0993
VFR 18°C / 13°C 80º 8kt >10km - Clouds and Visibility OK 1008 No Significant change UWWW 160100Z 08004MPS CAVOK 18/13 Q1008 R15/CLRD60 NOSIG RMK QFE745/0993
VFR 18°C / 13°C 60º variable 060º to 130º 8kt >10km - Clouds and Visibility OK 1008 No Significant change UWWW 160030Z 06004MPS 060V130 CAVOK 18/13 Q1008 R15/CLRD60 NOSIG RMK QFE745/0993
VFR 18°C / 14°C 80º 8kt >10km - Clouds and Visibility OK 1009 No Significant change UWWW 160000Z 08004MPS CAVOK 18/14 Q1009 R15/CLRD60 NOSIG RMK QFE745/0993
VFR 19°C / 14°C 70º 10kt >10km - Few Clouds 3300ft 1009 No Significant change UWWW 152330Z 07005MPS 9999 FEW033 19/14 Q1009 R15/CLRD60 NOSIG RMK QFE745/0993
VFR 19°C / 15°C 60º 8kt >10km - Few Clouds 3300ft 1009 No Significant change UWWW 152300Z 06004MPS 9999 FEW033 19/15 Q1009 R15/CLRD60 NOSIG RMK QFE745/0993
VFR 20°C / 14°C 130º variable 100º to 190º 4kt >10km - Few Clouds 3300ft 1009 No Significant change UWWW 152230Z 13002MPS 100V190 9999 FEW033 20/14 Q1009 R15/CLRD60 NOSIG RMK QFE745/0994
VFR 18°C / 15°C 90º 8kt >10km - Clouds and Visibility OK 1010 No Significant change UWWW 152200Z 09004MPS CAVOK 18/15 Q1010 R15/CLRD60 NOSIG RMK QFE746/0995
VFR 19°C / 15°C 110º 4kt >10km - Clouds and Visibility OK 1010 No Significant change UWWW 152130Z 11002MPS CAVOK 19/15 Q1010 R15/CLRD60 NOSIG RMK QFE746/0995
VFR 20°C / 15°C 110º 4kt >10km - Clouds and Visibility OK 1010 No Significant change UWWW 152100Z 11002MPS CAVOK 20/15 Q1010 R15/CLRD60 NOSIG RMK QFE746/0995
VFR 20°C / 14°C 50º 4kt >10km - Clouds and Visibility OK 1010 No Significant change UWWW 152030Z 05002MPS CAVOK 20/14 Q1010 R15/CLRD60 NOSIG RMK QFE746/0995
VFR 21°C / 14°C variable 2kt >10km - Clouds and Visibility OK 1010 No Significant change UWWW 152000Z VRB01MPS CAVOK 21/14 Q1010 R15/CLRD60 NOSIG RMK QFE746/0995
VFR 20°C / 14°C variable 0kt >10km - Clouds and Visibility OK 1010 No Significant change UWWW 151930Z 00000MPS CAVOK 20/14 Q1010 R15/CLRD60 NOSIG RMK QFE746/0995
VFR 20°C / 15°C variable 0kt >10km - Clouds and Visibility OK 1010 No Significant change UWWW 151900Z 00000MPS CAVOK 20/15 Q1010 R15/CLRD60 NOSIG RMK QFE746/0995
VFR 20°C / 15°C variable 2kt >10km - Scattered Clouds 3300ft 1011 No Significant change UWWW 151830Z VRB01MPS 9999 SCT033 20/15 Q1011 R15/CLRD60 NOSIG RMK QFE746/0995
VFR 21°C / 14°C 50º 4kt >10km - Scattered Clouds 3300ft 1011 No Significant change UWWW 151800Z 05002MPS 9999 SCT033 21/14 Q1011 R15/CLRD60 NOSIG RMK QFE747/0996
VFR 23°C / 14°C 350º variable 320º to 050º 4kt >10km - Scattered Clouds 3300ft 1011 No Significant change UWWW 151730Z 35002MPS 320V050 9999 SCT033 23/14 Q1011 R15/CLRD60 NOSIG RMK QFE747/0996
VFR 23°C / 14°C 50º variable 330º to 080º 8kt >10km - Scattered Clouds 3300ft 1011 No Significant change UWWW 151700Z 05004MPS 330V080 9999 SCT033 23/14 Q1011 R15/CLRD60 NOSIG RMK QFE747/0996
VFR 23°C / 13°C variable 2kt >10km - Scattered Clouds 3300ft 1012 No Significant change UWWW 151630Z VRB01MPS 9999 SCT033 23/13 Q1012 R15/CLRD60 NOSIG RMK QFE747/0996
VFR 24°C / 13°C 50º 8kt >10km - Scattered Clouds 3300ft 1011 No Significant change UWWW 151600Z 05004MPS 9999 SCT033 24/13 Q1011 R15/CLRD60 NOSIG RMK QFE747/0996
VFR 24°C / 13°C 70º 8kt >10km - Scattered Clouds 3300ft 1011 No Significant change UWWW 151530Z 07004MPS 9999 SCT033 24/13 Q1011 R15/CLRD60 NOSIG RMK QFE747/0996
VFR 24°C / 13°C 60º 6kt >10km - Scattered Clouds 3300ft 1012 No Significant change UWWW 151500Z 06003MPS 9999 SCT033CB 24/13 Q1012 R15/CLRD60 NOSIG RMK QFE747/0996
VFR 25°C / 11°C 80º 8kt >10km - Scattered Clouds 3300ft 1012 No Significant change UWWW 151430Z 08004MPS 9999 SCT033CB 25/11 Q1012 R15/CLRD60 NOSIG RMK QFE747/0997

VFR

20°C / 13°C

[Больше]
Ветер 90º 8kt
Видимость >10km
Погода -
Облачность Clouds and Visibility OK
Давление 1008
Изменить No Significant change
Необработанный UWWW 160200Z 09004MPS CAVOK 20/13 Q1008 R15/CLRD60 NOSIG RMK QFE745/0993

VFR

20°C / 13°C

[Больше]
Ветер 80º 10kt
Видимость >10km
Погода -
Облачность Clouds and Visibility OK
Давление 1008
Изменить No Significant change
Необработанный UWWW 160130Z 08005MPS CAVOK 20/13 Q1008 R15/CLRD60 NOSIG RMK QFE745/0993

VFR

18°C / 13°C

[Больше]
Ветер 80º 8kt
Видимость >10km
Погода -
Облачность Clouds and Visibility OK
Давление 1008
Изменить No Significant change
Необработанный UWWW 160100Z 08004MPS CAVOK 18/13 Q1008 R15/CLRD60 NOSIG RMK QFE745/0993

VFR

18°C / 13°C

[Больше]
Ветер 60º variable 060º to 130º 8kt
Видимость >10km
Погода -
Облачность Clouds and Visibility OK
Давление 1008
Изменить No Significant change
Необработанный UWWW 160030Z 06004MPS 060V130 CAVOK 18/13 Q1008 R15/CLRD60 NOSIG RMK QFE745/0993

VFR

18°C / 14°C

[Больше]
Ветер 80º 8kt
Видимость >10km
Погода -
Облачность Clouds and Visibility OK
Давление 1009
Изменить No Significant change
Необработанный UWWW 160000Z 08004MPS CAVOK 18/14 Q1009 R15/CLRD60 NOSIG RMK QFE745/0993

VFR

19°C / 14°C

[Больше]
Ветер 70º 10kt
Видимость >10km
Погода -
Облачность Few Clouds 3300ft
Давление 1009
Изменить No Significant change
Необработанный UWWW 152330Z 07005MPS 9999 FEW033 19/14 Q1009 R15/CLRD60 NOSIG RMK QFE745/0993

VFR

19°C / 15°C

[Больше]
Ветер 60º 8kt
Видимость >10km
Погода -
Облачность Few Clouds 3300ft
Давление 1009
Изменить No Significant change
Необработанный UWWW 152300Z 06004MPS 9999 FEW033 19/15 Q1009 R15/CLRD60 NOSIG RMK QFE745/0993

VFR

20°C / 14°C

[Больше]
Ветер 130º variable 100º to 190º 4kt
Видимость >10km
Погода -
Облачность Few Clouds 3300ft
Давление 1009
Изменить No Significant change
Необработанный UWWW 152230Z 13002MPS 100V190 9999 FEW033 20/14 Q1009 R15/CLRD60 NOSIG RMK QFE745/0994

VFR

18°C / 15°C

[Больше]
Ветер 90º 8kt
Видимость >10km
Погода -
Облачность Clouds and Visibility OK
Давление 1010
Изменить No Significant change
Необработанный UWWW 152200Z 09004MPS CAVOK 18/15 Q1010 R15/CLRD60 NOSIG RMK QFE746/0995

VFR

19°C / 15°C

[Больше]
Ветер 110º 4kt
Видимость >10km
Погода -
Облачность Clouds and Visibility OK
Давление 1010
Изменить No Significant change
Необработанный UWWW 152130Z 11002MPS CAVOK 19/15 Q1010 R15/CLRD60 NOSIG RMK QFE746/0995

VFR

20°C / 15°C

[Больше]
Ветер 110º 4kt
Видимость >10km
Погода -
Облачность Clouds and Visibility OK
Давление 1010
Изменить No Significant change
Необработанный UWWW 152100Z 11002MPS CAVOK 20/15 Q1010 R15/CLRD60 NOSIG RMK QFE746/0995

VFR

20°C / 14°C

[Больше]
Ветер 50º 4kt
Видимость >10km
Погода -
Облачность Clouds and Visibility OK
Давление 1010
Изменить No Significant change
Необработанный UWWW 152030Z 05002MPS CAVOK 20/14 Q1010 R15/CLRD60 NOSIG RMK QFE746/0995

VFR

21°C / 14°C

[Больше]
Ветер variable 2kt
Видимость >10km
Погода -
Облачность Clouds and Visibility OK
Давление 1010
Изменить No Significant change
Необработанный UWWW 152000Z VRB01MPS CAVOK 21/14 Q1010 R15/CLRD60 NOSIG RMK QFE746/0995

VFR

20°C / 14°C

[Больше]
Ветер variable 0kt
Видимость >10km
Погода -
Облачность Clouds and Visibility OK
Давление 1010
Изменить No Significant change
Необработанный UWWW 151930Z 00000MPS CAVOK 20/14 Q1010 R15/CLRD60 NOSIG RMK QFE746/0995

VFR

20°C / 15°C

[Больше]
Ветер variable 0kt
Видимость >10km
Погода -
Облачность Clouds and Visibility OK
Давление 1010
Изменить No Significant change
Необработанный UWWW 151900Z 00000MPS CAVOK 20/15 Q1010 R15/CLRD60 NOSIG RMK QFE746/0995

VFR

20°C / 15°C

[Больше]
Ветер variable 2kt
Видимость >10km
Погода -
Облачность Scattered Clouds 3300ft
Давление 1011
Изменить No Significant change
Необработанный UWWW 151830Z VRB01MPS 9999 SCT033 20/15 Q1011 R15/CLRD60 NOSIG RMK QFE746/0995

VFR

21°C / 14°C

[Больше]
Ветер 50º 4kt
Видимость >10km
Погода -
Облачность Scattered Clouds 3300ft
Давление 1011
Изменить No Significant change
Необработанный UWWW 151800Z 05002MPS 9999 SCT033 21/14 Q1011 R15/CLRD60 NOSIG RMK QFE747/0996

VFR

23°C / 14°C

[Больше]
Ветер 350º variable 320º to 050º 4kt
Видимость >10km
Погода -
Облачность Scattered Clouds 3300ft
Давление 1011
Изменить No Significant change
Необработанный UWWW 151730Z 35002MPS 320V050 9999 SCT033 23/14 Q1011 R15/CLRD60 NOSIG RMK QFE747/0996

VFR

23°C / 14°C

[Больше]
Ветер 50º variable 330º to 080º 8kt
Видимость >10km
Погода -
Облачность Scattered Clouds 3300ft
Давление 1011
Изменить No Significant change
Необработанный UWWW 151700Z 05004MPS 330V080 9999 SCT033 23/14 Q1011 R15/CLRD60 NOSIG RMK QFE747/0996

VFR

23°C / 13°C

[Больше]
Ветер variable 2kt
Видимость >10km
Погода -
Облачность Scattered Clouds 3300ft
Давление 1012
Изменить No Significant change
Необработанный UWWW 151630Z VRB01MPS 9999 SCT033 23/13 Q1012 R15/CLRD60 NOSIG RMK QFE747/0996

VFR

24°C / 13°C

[Больше]
Ветер 50º 8kt
Видимость >10km
Погода -
Облачность Scattered Clouds 3300ft
Давление 1011
Изменить No Significant change
Необработанный UWWW 151600Z 05004MPS 9999 SCT033 24/13 Q1011 R15/CLRD60 NOSIG RMK QFE747/0996

VFR

24°C / 13°C

[Больше]
Ветер 70º 8kt
Видимость >10km
Погода -
Облачность Scattered Clouds 3300ft
Давление 1011
Изменить No Significant change
Необработанный UWWW 151530Z 07004MPS 9999 SCT033 24/13 Q1011 R15/CLRD60 NOSIG RMK QFE747/0996

VFR

24°C / 13°C

[Больше]
Ветер 60º 6kt
Видимость >10km
Погода -
Облачность Scattered Clouds 3300ft
Давление 1012
Изменить No Significant change
Необработанный UWWW 151500Z 06003MPS 9999 SCT033CB 24/13 Q1012 R15/CLRD60 NOSIG RMK QFE747/0996

VFR

25°C / 11°C

[Больше]
Ветер 80º 8kt
Видимость >10km
Погода -
Облачность Scattered Clouds 3300ft
Давление 1012
Изменить No Significant change
Необработанный UWWW 151430Z 08004MPS 9999 SCT033CB 25/11 Q1012 R15/CLRD60 NOSIG RMK QFE747/0997

TAF для 53.5°С 50.15°В (UWWW)

From till


Maximum Temperature 32ºC on . Minimum Temperature 18ºC on .
From till Wind 100º 6kt. Gust 16kt. Visibility 10km or more. Scattered Clouds 2000ft.
Temporarly from till Light Showers Rain . Broken Clouds 1600ft.
Becoming from till Wind 170º 12kt. Gust 23kt. Visibility 10km or more. Scattered Clouds 2000ft.
Temporarly from till Wind 210º 27kt. Light Thunderstorm Rain . Broken Clouds 1600ft.
Becoming from till Wind 220º 6kt. Gust 16kt. Visibility 10km or more. Scattered Clouds 2000ft.

Необработанный: TAF UWWW 152253Z 1600/1624 10003G08MPS 9999 SCT020 TX32/1612Z TN18/1601Z TEMPO 1600/1606 -SHRA BKN016CB BECMG 1603/1605 17006G12MPS TEMPO 1606/1615 21014MPS -TSRA BKN016CB BECMG 1615/1617 22003G08MPS

rainNOW

0.0 мм
0.0 мм
0.0 мм
0.0 мм
0.0 мм
0.0 мм
0.0 мм
0.0 мм
0.0 мм
0.0 мм
0.0 мм
0.0 мм

Текущие спутниковые изображения и снимки дождя для 53.5°С 50.15°В

Указатель местности находится на 53.5°С 50.15°В. [Больше]

Спутниковое изображение в реальном времени сочетает в себе видимый свет в дневное время с инфракрасным излучением в ночное время. Ночью изображение получается не темным, так как инфракрасное излучение может обнаружить разницу температур. К сожалению, низкие облака и туман трудно отличить от температуры у поверхности земли и поэтому могут быть почти незаметны ночью. Спутниковые снимки Meteosat для Европы обновляются каждые 5 минут в режиме реального времени.Снимки GOES-16/GOES-17 (Северная и Южная Америка) и Химавари (Азия) обновляются каждые 10 минут.

Копирайт 2021 EUMETSAT / meteoblue. / Копирайт 2021 meteoblue

Радарный и сверхкраткосрочный прогноз осадков для 53.5°С 50.15°В

Индикатор местности находится на 53.5°С 50.15°В. Анимация показывает радар осадков за последний час, а также прогноз погоды для1h. Умеренная морось или легкий снег могут быть незаметны для радара. Интенсивность осадковмаркированна цветной кодировкой, начиная со светло-синего и заканчивая темно-пурпурным.